Time;durP1;ratioP1;P1;durP2;ratioP2;P2;SDS_P1;SDS_P2;PMS_P1;PMS_P2;Temp;Humidity;BMP_temperature;BMP_pressure;BME280_temperature;BME280_humidity;BME280_pressure;Samples;Min_cycle;Max_cycle;Signal;HPM_P1;HPM_P2
2022/04/25 00:02:10;;;;;;;9.45;1.33;;;32.20;14.00;;;;;;5052226;28;20049;-68
2022/04/25 00:04:37;;;;;;;8.50;1.80;;;32.10;13.90;;;;;;5068648;28;20535;-68
2022/04/25 00:07:06;;;;;;;9.15;1.40;;;32.00;14.00;;;;;;5085362;28;20507;-66
2022/04/25 00:09:32;;;;;;;6.75;1.45;;;31.90;14.40;;;;;;5069857;28;20037;-67
2022/04/25 00:11:59;;;;;;;19.33;2.28;;;32.00;13.90;;;;;;5068439;28;20440;-69
2022/04/25 00:14:25;;;;;;;9.35;1.48;;;32.10;13.90;;;;;;5063923;28;20153;-68
2022/04/25 00:16:56;;;;;;;26.42;2.67;;;31.90;13.50;;;;;;5064686;28;20055;-68
2022/04/25 00:19:26;;;;;;;9.07;1.73;;;31.90;13.70;;;;;;5070479;28;20054;-70
2022/04/25 00:21:55;;;;;;;8.45;1.38;;;32.10;13.60;;;;;;5084395;28;20594;-69
2022/04/25 00:24:21;;;;;;;46.70;3.35;;;31.90;13.60;;;;;;5070185;28;20062;-69
2022/04/25 00:26:48;;;;;;;44.47;4.68;;;31.90;13.60;;;;;;5069630;28;20051;-68
2022/04/25 00:29:15;;;;;;;13.90;1.83;;;31.80;13.50;;;;;;5067945;28;20069;-69
2022/04/25 00:31:41;;;;;;;109.32;6.00;;;31.70;13.50;;;;;;5069333;28;20404;-69
2022/04/25 00:34:08;;;;;;;18.25;1.92;;;31.70;13.90;;;;;;5069170;28;20060;-69
2022/04/25 00:36:34;;;;;;;10.60;1.88;;;31.60;13.60;;;;;;5070320;28;20123;-67
2022/04/25 00:39:01;;;;;;;32.60;3.95;;;31.40;13.80;;;;;;5068874;28;20060;-64
2022/04/25 00:41:27;;;;;;;15.32;2.65;;;31.30;14.00;;;;;;5070863;28;20083;-70
2022/04/25 00:43:58;;;;;;;8.43;2.60;;;31.40;14.00;;;;;;5073686;28;20050;-66
2022/04/25 00:46:26;;;;;;;7.28;2.60;;;31.40;13.80;;;;;;5072946;28;20050;-72
2022/04/25 00:48:53;;;;;;;6.82;1.48;;;31.50;13.80;;;;;;5069490;28;20718;-69
2022/04/25 00:51:19;;;;;;;6.10;1.80;;;31.30;13.50;;;;;;5068753;28;20395;-70
2022/04/25 00:53:47;;;;;;;13.82;2.13;;;31.30;13.50;;;;;;5073269;28;20053;-70
2022/04/25 00:56:15;;;;;;;9.68;2.33;;;31.20;13.50;;;;;;5083894;28;20069;-71
2022/04/25 00:58:44;;;;;;;7.03;2.97;;;31.20;13.40;;;;;;5070999;28;20049;-69
2022/04/25 01:01:12;;;;;;;11.43;2.88;;;31.30;13.50;;;;;;5085725;28;20093;-64
2022/04/25 01:03:38;;;;;;;8.10;2.42;;;31.10;13.80;;;;;;5074561;28;20044;-68
2022/04/25 01:06:05;;;;;;;7.43;1.90;;;31.20;13.90;;;;;;5051381;28;20091;-69
2022/04/25 01:08:37;;;;;;;10.13;2.05;;;31.00;13.80;;;;;;5086216;28;20083;-70
2022/04/25 01:11:05;;;;;;;2.55;1.70;;;30.90;13.80;;;;;;5068177;28;20490;-72
2022/04/25 01:13:32;;;;;;;10.25;2.10;;;30.60;13.60;;;;;;5069845;28;20069;-68
2022/04/25 01:15:58;;;;;;;7.78;1.80;;;30.40;14.20;;;;;;5069322;28;20049;-67
2022/04/25 01:18:25;;;;;;;10.77;2.38;;;30.50;13.80;;;;;;5068432;28;20058;-71
2022/04/25 01:20:55;;;;;;;8.07;1.70;;;30.40;13.80;;;;;;5070070;28;20070;-67
2022/04/25 01:28:54;;;;;;;8.43;2.45;;;30.20;14.20;;;;;;5070107;28;20437;-69
2022/04/25 01:31:20;;;;;;;10.18;2.65;;;30.00;14.70;;;;;;5068415;28;20056;-70
2022/04/25 01:33:47;;;;;;;10.30;2.13;;;29.80;15.40;;;;;;5069880;28;20067;-66
2022/04/25 01:36:13;;;;;;;6.95;2.08;;;29.70;14.70;;;;;;5064485;28;20090;-68
2022/04/25 01:38:40;;;;;;;6.70;1.80;;;29.70;14.50;;;;;;5069165;28;20056;-66
2022/04/25 01:41:06;;;;;;;7.70;2.20;;;29.70;14.60;;;;;;5076838;28;20546;-68
2022/04/25 01:43:37;;;;;;;5.32;1.77;;;29.60;14.50;;;;;;5069210;28;20055;-66
2022/04/25 01:46:03;;;;;;;4.78;1.65;;;29.50;14.60;;;;;;5068976;28;20110;-71
2022/04/25 01:48:30;;;;;;;6.70;2.00;;;29.40;14.40;;;;;;5085784;28;20139;-67
2022/04/25 01:50:57;;;;;;;5.72;1.80;;;29.20;14.30;;;;;;5067685;28;20102;-69
2022/04/25 01:53:24;;;;;;;12.10;2.15;;;29.20;14.50;;;;;;5069284;28;20061;-70
2022/04/25 01:55:51;;;;;;;10.40;2.38;;;29.10;14.70;;;;;;5067818;28;20086;-69
2022/04/25 01:58:17;;;;;;;11.82;2.08;;;29.10;14.80;;;;;;5068879;28;20141;-68
2022/04/25 02:00:44;;;;;;;14.52;2.42;;;29.00;14.50;;;;;;5067345;28;20073;-67
2022/04/25 02:03:11;;;;;;;12.38;2.15;;;28.90;14.60;;;;;;5068557;28;20092;-70
2022/04/25 02:05:38;;;;;;;9.77;3.90;;;28.80;14.60;;;;;;5068352;28;20145;-70
2022/04/25 02:08:05;;;;;;;13.68;6.50;;;28.70;14.80;;;;;;5069780;28;20049;-73
2022/04/25 02:10:32;;;;;;;16.48;7.32;;;28.60;14.90;;;;;;5069929;28;20094;-67
2022/04/25 02:12:58;;;;;;;17.10;7.20;;;28.50;14.90;;;;;;5071558;28;20162;-71
2022/04/25 02:15:25;;;;;;;17.42;7.43;;;28.50;14.90;;;;;;5090782;28;20067;-71
2022/04/25 02:17:51;;;;;;;14.68;7.47;;;28.40;15.00;;;;;;5077748;28;20059;-67
2022/04/25 02:20:18;;;;;;;18.65;7.57;;;28.30;15.10;;;;;;5084811;28;20111;-70
2022/04/25 02:22:44;;;;;;;23.65;7.07;;;28.20;15.20;;;;;;5088470;28;20160;-67
2022/04/25 02:25:10;;;;;;;20.98;6.97;;;28.10;15.20;;;;;;5072538;28;20284;-68
2022/04/25 02:27:37;;;;;;;14.75;6.07;;;28.00;15.30;;;;;;5072186;28;20083;-69
2022/04/25 02:30:04;;;;;;;13.82;5.75;;;28.00;15.40;;;;;;5072199;28;20064;-69
2022/04/25 02:32:30;;;;;;;15.82;5.20;;;27.90;15.40;;;;;;5070476;28;20074;-68
2022/04/25 02:34:59;;;;;;;15.57;4.95;;;27.80;15.50;;;;;;5087339;28;20585;-68
2022/04/25 02:37:25;;;;;;;14.40;4.88;;;27.70;15.50;;;;;;5071973;28;20076;-68
2022/04/25 02:39:52;;;;;;;20.67;3.47;;;27.70;15.70;;;;;;5087415;28;20053;-71
2022/04/25 02:42:18;;;;;;;19.17;3.22;;;27.60;15.90;;;;;;5088059;28;20093;-67
2022/04/25 02:44:45;;;;;;;15.82;3.15;;;27.50;16.10;;;;;;5071543;28;20065;-65
2022/04/25 02:47:11;;;;;;;20.17;3.95;;;27.40;16.10;;;;;;5071831;28;20079;-68
2022/04/25 02:49:37;;;;;;;28.58;7.70;;;27.40;16.40;;;;;;5079614;28;20087;-70
2022/04/25 02:52:04;;;;;;;29.58;12.05;;;27.30;16.40;;;;;;5088255;28;20403;-71
2022/04/25 02:54:32;;;;;;;32.03;16.00;;;27.20;16.50;;;;;;5054518;28;20086;-68
2022/04/25 02:56:58;;;;;;;20.52;4.75;;;27.10;16.70;;;;;;5070064;28;20089;-68
2022/04/25 02:59:25;;;;;;;18.00;3.35;;;27.00;16.80;;;;;;5071872;28;20528;-67
2022/04/25 03:01:51;;;;;;;16.17;4.28;;;27.00;17.10;;;;;;5070786;28;20093;-68
2022/04/25 03:04:17;;;;;;;15.23;3.80;;;26.90;17.20;;;;;;5086275;28;20084;-69
2022/04/25 03:06:44;;;;;;;21.48;4.30;;;26.70;17.30;;;;;;5071243;28;20938;-69
2022/04/25 03:09:10;;;;;;;30.40;4.70;;;26.60;17.50;;;;;;5053962;28;20060;-69
2022/04/25 03:11:37;;;;;;;28.52;3.72;;;26.50;17.80;;;;;;5087799;28;20069;-71
2022/04/25 03:14:03;;;;;;;30.13;4.72;;;26.40;18.10;;;;;;5071395;28;20091;-68
2022/04/25 03:16:30;;;;;;;28.15;4.68;;;26.40;18.20;;;;;;5087134;28;20073;-68
2022/04/25 03:18:58;;;;;;;29.10;4.97;;;26.30;18.20;;;;;;5067798;28;20093;-68
2022/04/25 03:21:25;;;;;;;19.90;4.78;;;26.20;18.60;;;;;;5083790;28;20098;-67
2022/04/25 03:23:53;;;;;;;32.25;5.07;;;26.10;18.90;;;;;;5070298;28;20456;-68
2022/04/25 03:26:19;;;;;;;21.40;5.28;;;25.90;19.10;;;;;;5036890;28;20077;-71
2022/04/25 03:28:46;;;;;;;23.45;6.47;;;25.80;19.30;;;;;;5069773;28;20094;-65
2022/04/25 03:31:12;;;;;;;30.38;6.95;;;25.70;19.60;;;;;;5069885;28;20107;-66
2022/04/25 03:33:39;;;;;;;28.35;6.75;;;25.60;19.60;;;;;;5068582;28;20085;-67
2022/04/25 03:36:05;;;;;;;17.75;6.28;;;25.50;19.70;;;;;;5069476;28;20164;-70
2022/04/25 03:38:32;;;;;;;32.75;6.88;;;25.40;19.80;;;;;;5087966;28;20113;-68
2022/04/25 03:40:59;;;;;;;47.72;8.90;;;25.20;19.60;;;;;;5070327;28;20085;-64
2022/04/25 03:43:26;;;;;;;35.00;7.40;;;25.20;19.80;;;;;;5070393;28;20061;-68
2022/04/25 03:45:52;;;;;;;32.72;6.82;;;25.20;19.70;;;;;;5068737;28;20633;-68
2022/04/25 03:48:19;;;;;;;35.03;7.40;;;25.10;19.70;;;;;;5071110;28;20069;-67
2022/04/25 03:50:46;;;;;;;31.55;7.05;;;25.00;19.90;;;;;;5070725;28;20068;-66
2022/04/25 03:53:13;;;;;;;49.17;8.70;;;25.00;20.10;;;;;;5068025;28;20082;-68
2022/04/25 03:58:24;;;;;;;58.20;8.48;;;24.80;20.20;;;;;;5071665;28;20079;-69
2022/04/25 04:00:51;;;;;;;49.70;8.18;;;24.80;20.20;;;;;;5069389;28;20113;-69
2022/04/25 04:03:18;;;;;;;51.63;8.05;;;24.70;20.20;;;;;;5085616;28;20071;-68
2022/04/25 04:05:46;;;;;;;59.17;8.65;;;24.70;20.20;;;;;;5071962;28;20094;-67
2022/04/25 04:08:12;;;;;;;51.40;9.40;;;24.50;20.20;;;;;;5074762;28;20474;-69
2022/04/25 04:10:39;;;;;;;44.03;8.80;;;24.50;20.20;;;;;;5070046;28;20071;-67
2022/04/25 04:13:06;;;;;;;53.83;8.52;;;24.50;20.30;;;;;;5086686;28;20083;-68
2022/04/25 04:15:32;;;;;;;49.53;7.75;;;24.30;20.40;;;;;;5075571;28;20081;-70
2022/04/25 04:17:59;;;;;;;30.88;7.45;;;24.30;20.50;;;;;;5054212;28;20521;-72
2022/04/25 04:20:25;;;;;;;44.45;7.20;;;24.20;20.80;;;;;;5086815;28;20078;-68
2022/04/25 04:22:52;;;;;;;48.67;8.20;;;24.10;20.90;;;;;;5086656;28;20070;-71
2022/04/25 04:25:18;;;;;;;57.97;8.82;;;24.10;20.90;;;;;;5070549;28;20177;-69
2022/04/25 04:27:45;;;;;;;46.65;8.80;;;24.00;20.80;;;;;;5087424;28;20097;-68
2022/04/25 04:30:13;;;;;;;47.78;9.02;;;23.90;20.80;;;;;;5069553;28;20066;-67
2022/04/25 04:32:40;;;;;;;46.15;9.60;;;23.90;20.90;;;;;;5074520;28;20092;-64
2022/04/25 04:35:09;;;;;;;67.00;9.88;;;23.70;20.80;;;;;;5071300;28;20106;-67
2022/04/25 04:37:37;;;;;;;36.33;9.63;;;23.70;20.80;;;;;;5078426;28;20067;-65
2022/04/25 04:42:51;;;;;;;43.17;10.02;;;23.60;21.20;;;;;;5072467;28;20571;-69
2022/04/25 04:45:18;;;;;;;45.33;10.38;;;23.60;20.90;;;;;;5089838;28;20113;-71
2022/04/25 04:47:44;;;;;;;52.38;11.10;;;23.50;21.00;;;;;;5072481;28;20079;-68
2022/04/25 04:50:15;;;;;;;49.05;11.25;;;23.40;21.00;;;;;;5072986;28;20584;-69
2022/04/25 04:52:50;;;;;;;54.15;11.38;;;23.40;21.30;;;;;;5072481;28;20117;-68
2022/04/25 04:55:16;;;;;;;47.25;11.00;;;23.30;21.50;;;;;;5072952;28;20088;-70
2022/04/25 04:57:47;;;;;;;66.00;11.68;;;23.30;21.70;;;;;;5088542;28;20067;-72
2022/04/25 05:00:15;;;;;;;60.30;9.95;;;23.30;22.30;;;;;;5071264;28;20080;-72
2022/04/25 05:02:43;;;;;;;57.90;10.40;;;23.20;22.40;;;;;;5075200;28;20067;-66
2022/04/25 05:05:11;;;;;;;37.78;9.25;;;23.10;21.80;;;;;;5075780;28;20079;-64
2022/04/25 05:07:38;;;;;;;64.28;9.32;;;23.10;21.70;;;;;;5092046;28;20111;-62
2022/04/25 05:10:06;;;;;;;48.03;9.18;;;23.00;22.50;;;;;;5081035;28;20074;-65
2022/04/25 05:12:55;;;;;;;55.40;8.98;;;22.90;22.00;;;;;;5093779;28;20125;-59
2022/04/25 05:15:22;;;;;;;46.00;9.30;;;22.80;22.10;;;;;;5076644;28;20077;-61
2022/04/25 05:17:50;;;;;;;49.70;8.43;;;22.70;22.40;;;;;;5078461;28;20076;-61
2022/04/25 05:20:19;;;;;;;60.63;9.13;;;22.70;22.80;;;;;;5090227;28;20212;-67
2022/04/25 05:22:47;;;;;;;51.90;9.68;;;22.70;22.70;;;;;;5068770;28;20071;-69
2022/04/25 05:25:15;;;;;;;64.97;10.10;;;22.60;23.10;;;;;;5071691;28;20475;-69
2022/04/25 05:27:46;;;;;;;45.30;9.40;;;22.60;23.00;;;;;;5069312;28;20153;-68
2022/04/25 05:30:14;;;;;;;55.08;9.57;;;22.50;23.10;;;;;;5068248;28;20070;-63
2022/04/25 05:32:54;;;;;;;56.90;10.88;;;22.30;23.40;;;;;;5068677;28;20146;-63
2022/04/25 05:35:25;;;;;;;54.90;12.10;;;22.30;23.50;;;;;;5065026;28;20581;-61
2022/04/25 05:37:51;;;;;;;70.93;11.65;;;22.30;23.30;;;;;;5082242;28;20148;-65
2022/04/25 05:40:19;;;;;;;57.17;11.85;;;22.30;23.40;;;;;;5067754;28;20083;-64
2022/04/25 05:42:47;;;;;;;62.50;10.77;;;22.30;23.50;;;;;;5065408;28;20433;-64
2022/04/25 05:45:15;;;;;;;55.17;11.23;;;22.30;23.60;;;;;;5067078;28;20068;-63
2022/04/25 05:47:45;;;;;;;45.78;11.98;;;22.30;23.80;;;;;;5068043;28;20071;-64
2022/04/25 05:52:57;;;;;;;67.18;12.45;;;22.20;24.20;;;;;;5072754;28;20070;-64
2022/04/25 05:55:24;;;;;;;54.63;11.55;;;22.10;24.30;;;;;;5072478;28;20079;-63
2022/04/25 05:57:50;;;;;;;57.33;12.13;;;22.10;24.60;;;;;;5053958;28;20072;-64
2022/04/25 06:00:18;;;;;;;62.00;12.43;;;22.10;24.90;;;;;;5087445;28;20084;-66
2022/04/25 06:02:46;;;;;;;71.07;12.30;;;22.00;24.70;;;;;;5070716;28;20092;-65
2022/04/25 06:05:15;;;;;;;56.80;12.05;;;21.90;24.70;;;;;;5070755;28;20471;-65
2022/04/25 06:07:46;;;;;;;61.33;12.43;;;21.70;24.70;;;;;;5072616;28;20079;-65
2022/04/25 06:10:17;;;;;;;63.03;13.32;;;21.80;24.70;;;;;;5085163;28;20063;-64
2022/04/25 06:12:51;;;;;;;69.57;13.15;;;21.80;24.80;;;;;;5087453;28;20078;-65
2022/04/25 06:15:21;;;;;;;49.88;13.10;;;21.70;24.80;;;;;;5090259;28;20109;-62
2022/04/25 06:17:47;;;;;;;77.53;14.52;;;21.60;24.70;;;;;;5071075;28;20072;-64
2022/04/25 06:20:14;;;;;;;56.72;12.75;;;21.60;25.10;;;;;;5089123;28;20560;-63
2022/04/25 06:22:52;;;;;;;60.33;13.25;;;21.60;25.10;;;;;;5087808;28;20162;-63
2022/04/25 06:25:18;;;;;;;66.38;13.55;;;21.60;25.00;;;;;;5056165;28;20086;-64
2022/04/25 06:27:45;;;;;;;74.63;14.60;;;21.50;25.20;;;;;;5089372;28;20079;-66
2022/04/25 06:30:12;;;;;;;70.72;14.70;;;21.50;25.40;;;;;;5039196;28;20410;-63
2022/04/25 06:32:38;;;;;;;69.07;13.63;;;21.50;25.60;;;;;;5069873;28;20079;-64
2022/04/25 06:35:05;;;;;;;66.75;13.75;;;21.40;25.70;;;;;;5088012;28;20508;-66
2022/04/25 06:37:31;;;;;;;62.72;12.73;;;21.40;25.70;;;;;;5069972;28;20071;-64
2022/04/25 06:39:58;;;;;;;70.82;14.13;;;21.30;25.70;;;;;;5086337;28;20072;-62
2022/04/25 06:42:25;;;;;;;69.65;13.40;;;21.20;25.80;;;;;;5074519;28;20121;-64
2022/04/25 06:44:52;;;;;;;52.92;13.88;;;21.10;25.70;;;;;;5070959;28;20113;-63
2022/04/25 06:47:18;;;;;;;69.10;13.70;;;21.10;26.10;;;;;;5091184;28;20106;-64
2022/04/25 06:49:45;;;;;;;77.88;14.75;;;21.10;26.30;;;;;;5071146;28;20077;-65
2022/04/25 06:52:11;;;;;;;76.65;14.25;;;21.10;26.60;;;;;;5068574;28;20088;-65
2022/04/25 06:54:38;;;;;;;69.07;14.07;;;21.10;26.30;;;;;;5087598;28;20604;-64
2022/04/25 06:57:06;;;;;;;85.57;15.55;;;21.10;26.70;;;;;;5070968;28;20145;-64
2022/04/25 06:59:32;;;;;;;78.25;17.20;;;21.10;26.30;;;;;;5071510;28;20096;-66
2022/04/25 07:02:00;;;;;;;74.70;14.80;;;21.10;26.20;;;;;;5089246;28;20110;-64
2022/04/25 07:04:27;;;;;;;73.22;16.27;;;21.00;26.30;;;;;;5068738;28;20145;-63
2022/04/25 07:06:54;;;;;;;72.38;16.42;;;21.00;26.40;;;;;;5068627;28;20094;-62
2022/04/25 07:09:20;;;;;;;82.13;17.05;;;20.90;26.40;;;;;;5086021;28;20144;-63
2022/04/25 07:11:47;;;;;;;72.53;17.48;;;21.00;26.70;;;;;;5084875;28;20091;-64
2022/04/25 07:14:14;;;;;;;78.90;18.23;;;20.90;26.40;;;;;;5089351;28;20521;-63
2022/04/25 07:16:45;;;;;;;84.72;17.65;;;20.90;26.30;;;;;;5071752;28;20114;-66
2022/04/25 07:19:12;;;;;;;97.60;19.50;;;20.80;26.30;;;;;;5071648;28;20076;-64
2022/04/25 07:29:53;;;;;;;78.20;17.90;;;20.60;26.30;;;;;;5073396;28;20461;-63
2022/04/25 07:32:20;;;;;;;68.10;16.63;;;20.60;26.90;;;;;;5066790;28;20080;-64
2022/04/25 07:34:47;;;;;;;80.22;16.40;;;20.50;26.80;;;;;;5086846;28;20110;-67
2022/04/25 07:37:18;;;;;;;77.85;16.10;;;20.50;26.50;;;;;;5089047;28;20075;-63
2022/04/25 07:39:47;;;;;;;49.22;12.48;;;20.40;26.00;;;;;;5083900;28;20130;-63
2022/04/25 07:42:15;;;;;;;64.53;14.52;;;20.40;25.50;;;;;;5068357;28;20092;-63
2022/04/25 07:44:42;;;;;;;67.13;13.60;;;20.50;25.70;;;;;;5068317;28;20145;-63
2022/04/25 07:47:09;;;;;;;63.20;14.05;;;20.50;25.90;;;;;;5088132;28;20158;-65
2022/04/25 07:49:35;;;;;;;49.42;12.63;;;20.50;25.50;;;;;;5085334;28;20623;-63
2022/04/25 07:52:02;;;;;;;42.13;11.02;;;20.50;25.30;;;;;;5054684;28;20103;-63
2022/04/25 07:54:28;;;;;;;31.85;10.00;;;20.40;25.00;;;;;;5088196;28;20449;-65
2022/04/25 07:56:55;;;;;;;34.88;10.38;;;20.30;25.00;;;;;;5068958;28;20129;-63
2022/04/25 07:59:21;;;;;;;37.47;8.50;;;20.30;24.90;;;;;;5070082;28;20685;-63
2022/04/25 08:01:48;;;;;;;31.45;8.02;;;20.20;24.50;;;;;;5071858;28;20087;-64
2022/04/25 08:04:14;;;;;;;23.23;7.18;;;20.20;24.30;;;;;;5068879;28;20091;-64
2022/04/25 08:06:41;;;;;;;27.05;7.32;;;20.20;24.30;;;;;;5085667;28;20072;-65
2022/04/25 08:09:07;;;;;;;23.30;6.30;;;20.20;24.40;;;;;;5070686;28;20067;-64
2022/04/25 08:11:34;;;;;;;39.42;6.88;;;20.10;24.30;;;;;;5071087;28;20095;-64
2022/04/25 08:19:32;;;;;;;14.48;3.50;;;20.00;23.90;;;;;;5067389;28;20198;-63
2022/04/25 08:22:00;;;;;;;12.00;3.30;;;20.00;23.30;;;;;;5065262;28;20088;-63
2022/04/25 08:24:27;;;;;;;10.15;3.30;;;20.00;22.50;;;;;;5068067;28;20129;-63
2022/04/25 08:26:55;;;;;;;13.88;2.97;;;20.00;22.60;;;;;;5083695;28;20133;-63
2022/04/25 08:29:23;;;;;;;6.22;2.08;;;20.00;22.30;;;;;;5050346;28;20094;-63
2022/04/25 08:31:49;;;;;;;6.28;2.53;;;19.90;21.70;;;;;;5053113;28;20115;-64
2022/04/25 08:34:16;;;;;;;7.45;2.22;;;20.00;21.80;;;;;;5067182;28;20114;-63
2022/04/25 08:36:43;;;;;;;4.63;1.90;;;20.00;21.80;;;;;;5087164;28;20133;-62
2022/04/25 08:39:09;;;;;;;8.13;2.35;;;20.00;21.40;;;;;;5069813;28;20083;-63
2022/04/25 08:41:43;;;;;;;5.03;2.10;;;20.00;21.40;;;;;;5082676;28;20092;-63
2022/04/25 08:44:10;;;;;;;12.35;2.63;;;19.90;21.40;;;;;;5069743;28;20083;-63
2022/04/25 08:46:39;;;;;;;8.90;2.15;;;19.80;21.50;;;;;;5071626;28;20162;-63
2022/04/25 08:49:05;;;;;;;10.50;2.20;;;19.80;21.40;;;;;;5069957;28;20079;-62
2022/04/25 08:51:37;;;;;;;6.43;1.95;;;19.70;21.40;;;;;;5066261;28;20111;-63
2022/04/25 08:54:08;;;;;;;4.60;1.92;;;19.70;21.30;;;;;;5073071;28;20162;-63
2022/04/25 08:56:37;;;;;;;5.85;2.20;;;19.70;20.80;;;;;;5068548;28;20545;-63
2022/04/25 08:59:07;;;;;;;9.45;2.22;;;19.70;20.70;;;;;;5052504;28;20110;-63
2022/04/25 09:01:34;;;;;;;7.40;2.13;;;19.80;20.80;;;;;;5087164;28;20129;-64
2022/04/25 09:04:04;;;;;;;9.43;2.00;;;19.70;20.70;;;;;;5071252;28;20088;-63
2022/04/25 09:06:31;;;;;;;5.70;2.10;;;19.70;20.90;;;;;;5085457;28;20076;-63
2022/04/25 09:08:58;;;;;;;5.43;1.90;;;19.70;21.00;;;;;;5069467;28;20075;-62
2022/04/25 09:14:11;;;;;;;7.95;2.28;;;19.70;21.10;;;;;;5070735;28;20496;-62
2022/04/25 09:16:38;;;;;;;5.53;2.28;;;19.70;21.10;;;;;;5070834;28;20414;-62
2022/04/25 09:19:05;;;;;;;5.47;1.45;;;19.70;21.20;;;;;;5071340;28;20091;-63
2022/04/25 09:21:43;;;;;;;5.35;1.70;;;19.70;21.30;;;;;;5067134;28;20116;-62
2022/04/25 09:24:20;;;;;;;6.20;2.05;;;19.60;21.50;;;;;;5070390;28;20114;-62
2022/04/25 09:26:48;;;;;;;3.85;1.73;;;19.50;21.50;;;;;;5065487;28;20193;-61
2022/04/25 09:29:16;;;;;;;7.70;2.22;;;19.50;21.70;;;;;;5088104;28;20201;-62
2022/04/25 09:31:49;;;;;;;4.85;1.90;;;19.50;21.90;;;;;;5055221;28;20075;-62
2022/04/25 09:34:59;;;;;;;3.97;1.67;;;19.50;22.00;;;;;;5053120;28;20600;-63
2022/04/25 09:37:02;;;;;;;7.55;1.88;;;19.40;22.10;;;;;;5075122;28;20071;-62
2022/04/25 09:39:32;;;;;;;7.25;1.65;;;19.40;22.40;;;;;;5053064;28;20494;-63
2022/04/25 09:42:02;;;;;;;5.65;1.58;;;19.40;22.50;;;;;;5072763;28;20145;-63
2022/04/25 09:44:56;;;;;;;7.07;1.90;;;19.40;22.60;;;;;;5088894;28;20468;-63
2022/04/25 09:47:31;;;;;;;4.35;1.90;;;19.40;22.40;;;;;;5072646;28;20080;-62
2022/04/25 09:50:05;;;;;;;13.05;3.80;;;19.40;22.60;;;;;;5087870;28;20129;-64
2022/04/25 09:52:33;;;;;;;8.07;4.40;;;19.30;22.30;;;;;;5071850;28;20083;-64
2022/04/25 09:55:14;;;;;;;9.85;3.53;;;19.30;22.00;;;;;;5075380;28;20445;-62
2022/04/25 09:57:42;;;;;;;11.95;4.20;;;19.20;22.00;;;;;;5086830;28;20091;-62
2022/04/25 10:00:09;;;;;;;11.25;3.63;;;19.20;22.10;;;;;;5075188;28;20097;-64
2022/04/25 10:02:40;;;;;;;12.15;3.15;;;19.10;22.30;;;;;;5073453;28;20465;-65
2022/04/25 10:05:17;;;;;;;10.38;2.35;;;19.20;22.70;;;;;;5090546;28;20126;-62
2022/04/25 10:07:44;;;;;;;10.93;2.60;;;19.20;22.70;;;;;;5076589;28;20408;-65
2022/04/25 10:10:12;;;;;;;8.90;2.45;;;19.10;22.80;;;;;;5072139;28;20064;-63
2022/04/25 10:12:39;;;;;;;9.82;2.40;;;19.10;23.00;;;;;;5052252;28;20180;-62
2022/04/25 10:15:09;;;;;;;12.23;2.47;;;19.00;23.10;;;;;;5085323;28;20076;-65
2022/04/25 10:17:40;;;;;;;14.43;2.70;;;19.00;23.30;;;;;;5056320;28;20072;-66
2022/04/25 10:20:08;;;;;;;7.03;2.60;;;19.00;23.40;;;;;;5069910;28;20068;-66
2022/04/25 10:22:35;;;;;;;15.05;3.65;;;18.90;23.50;;;;;;5074987;28;20088;-63
2022/04/25 10:25:03;;;;;;;7.65;3.28;;;18.90;23.60;;;;;;5073893;28;20088;-61
2022/04/25 10:27:33;;;;;;;12.55;3.92;;;18.90;23.60;;;;;;5068065;28;20125;-64
2022/04/25 10:30:08;;;;;;;11.45;3.00;;;18.80;23.50;;;;;;5068616;28;20087;-62
2022/04/25 10:32:35;;;;;;;8.50;2.78;;;18.80;23.60;;;;;;5071147;28;20096;-62
2022/04/25 10:35:01;;;;;;;6.68;2.30;;;18.80;23.50;;;;;;5053509;28;20122;-61
2022/04/25 10:37:29;;;;;;;12.32;2.58;;;18.70;23.20;;;;;;5075903;28;20087;-61
2022/04/25 10:39:58;;;;;;;9.85;2.60;;;18.70;23.20;;;;;;5073630;28;20090;-63
2022/04/25 10:45:10;;;;;;;7.93;2.78;;;18.70;22.90;;;;;;5074323;28;20113;-62
2022/04/25 10:47:37;;;;;;;11.98;2.90;;;18.70;23.10;;;;;;5076247;28;20184;-62
2022/04/25 10:50:05;;;;;;;9.52;2.70;;;18.60;23.00;;;;;;5074606;28;20064;-64
2022/04/25 10:55:13;;;;;;;11.98;3.30;;;18.50;23.20;;;;;;5071904;28;20154;-62
2022/04/25 10:58:01;;;;;;;19.30;4.15;;;18.50;23.30;;;;;;5088815;28;20585;-63
2022/04/25 11:00:39;;;;;;;12.07;2.67;;;18.50;23.30;;;;;;5071540;28;20141;-62
2022/04/25 11:03:27;;;;;;;11.55;3.83;;;18.50;23.10;;;;;;5071261;28;20068;-63
2022/04/25 11:06:02;;;;;;;7.13;3.03;;;18.40;23.10;;;;;;5089747;28;20094;-61
2022/04/25 11:08:33;;;;;;;13.77;3.40;;;18.40;22.60;;;;;;5071738;28;20410;-62
2022/04/25 11:11:09;;;;;;;9.27;3.80;;;18.40;22.10;;;;;;5069416;28;20079;-63
2022/04/25 11:14:01;;;;;;;10.38;3.65;;;18.40;21.50;;;;;;5069005;28;20130;-63
2022/04/25 11:16:28;;;;;;;11.23;3.85;;;18.40;21.30;;;;;;5070838;28;20092;-63
2022/04/25 11:19:23;;;;;;;9.82;4.13;;;18.40;21.30;;;;;;5073413;28;20098;-63
2022/04/25 11:21:55;;;;;;;13.70;3.33;;;18.30;21.20;;;;;;5074843;28;20154;-62
2022/04/25 11:24:35;;;;;;;6.70;3.20;;;18.40;21.10;;;;;;5070531;28;20557;-62
2022/04/25 11:27:11;;;;;;;11.95;3.10;;;18.40;20.70;;;;;;5088117;28;20152;-63
2022/04/25 11:29:45;;;;;;;15.52;3.00;;;18.40;20.60;;;;;;5065881;28;20551;-63
2022/04/25 11:32:24;;;;;;;12.60;3.47;;;18.40;20.60;;;;;;5072632;28;20095;-63
2022/04/25 11:34:51;;;;;;;8.60;2.80;;;18.40;20.10;;;;;;5068068;28;20111;-63
2022/04/25 11:37:19;;;;;;;5.80;3.22;;;18.50;20.30;;;;;;5087529;28;20538;-63
2022/04/25 11:40:06;;;;;;;8.23;3.67;;;18.50;20.00;;;;;;5069960;28;20072;-63
2022/04/25 11:42:35;;;;;;;7.88;3.20;;;18.50;19.90;;;;;;5070516;28;20084;-63
2022/04/25 11:45:04;;;;;;;6.05;2.50;;;18.50;19.90;;;;;;5070610;28;20171;-63
2022/04/25 11:47:31;;;;;;;7.13;2.58;;;18.60;19.90;;;;;;5054995;28;20143;-63
2022/04/25 11:50:06;;;;;;;12.77;2.53;;;18.60;20.00;;;;;;5037382;28;20072;-64
2022/04/25 11:52:33;;;;;;;6.57;2.28;;;18.60;20.00;;;;;;5054482;28;20068;-62
2022/04/25 11:54:59;;;;;;;8.65;2.65;;;18.60;20.00;;;;;;5070592;28;20118;-62
2022/04/25 11:57:27;;;;;;;5.95;2.40;;;18.70;20.00;;;;;;5068231;28;20068;-62
2022/04/25 12:00:14;;;;;;;8.55;2.50;;;18.70;20.40;;;;;;5071238;28;20441;-62
2022/04/25 12:02:41;;;;;;;7.70;2.15;;;18.70;20.90;;;;;;5087724;28;20118;-63
2022/04/25 12:05:09;;;;;;;7.93;2.80;;;18.60;20.40;;;;;;5066317;28;20078;-66
2022/04/25 12:07:36;;;;;;;5.90;2.25;;;18.60;20.30;;;;;;5070261;28;20072;-62
2022/04/25 12:15:43;;;;;;;9.30;2.28;;;18.70;21.00;;;;;;5069139;28;20121;-62
2022/04/25 12:18:14;;;;;;;6.30;2.30;;;18.60;21.00;;;;;;5089706;28;20098;-62
2022/04/25 12:20:42;;;;;;;10.40;2.40;;;18.60;20.90;;;;;;5085184;28;20111;-62
2022/04/25 12:23:10;;;;;;;8.90;2.20;;;18.50;20.80;;;;;;5084523;28;20071;-63
2022/04/25 12:25:42;;;;;;;12.93;2.28;;;18.50;20.90;;;;;;5070510;28;20072;-62
2022/04/25 12:28:17;;;;;;;3.88;2.20;;;18.40;20.90;;;;;;5067683;28;20072;-62
2022/04/25 12:30:52;;;;;;;5.40;2.38;;;18.50;20.90;;;;;;5066258;28;20071;-62
2022/04/25 12:33:23;;;;;;;6.05;2.22;;;18.50;20.70;;;;;;5071461;28;20142;-64
2022/04/25 12:36:14;;;;;;;5.35;2.20;;;18.50;20.80;;;;;;5067772;28;20114;-63
2022/04/25 12:39:02;;;;;;;7.10;2.40;;;18.40;20.60;;;;;;5070260;28;20075;-62
2022/04/25 12:41:53;;;;;;;10.82;2.30;;;18.50;20.70;;;;;;5069662;28;20099;-64
2022/04/25 12:44:20;;;;;;;10.30;2.78;;;18.50;20.80;;;;;;5071406;28;20133;-62
2022/04/25 12:47:05;;;;;;;12.95;3.30;;;18.50;20.70;;;;;;5085289;28;20178;-62
2022/04/25 12:49:38;;;;;;;11.88;2.85;;;18.50;20.60;;;;;;5049365;28;20406;-63
2022/04/25 12:52:10;;;;;;;10.32;2.42;;;18.50;20.50;;;;;;5066531;28;20099;-63
2022/04/25 12:54:46;;;;;;;7.57;2.50;;;18.60;20.40;;;;;;5055177;28;20077;-64
2022/04/25 12:57:17;;;;;;;6.55;2.38;;;18.60;20.40;;;;;;5049820;28;20079;-63
2022/04/25 12:59:53;;;;;;;9.70;2.72;;;18.60;20.20;;;;;;5066817;28;20169;-63
2022/04/25 13:02:22;;;;;;;15.60;2.63;;;18.60;20.20;;;;;;5070050;28;20083;-61
2022/04/25 13:04:56;;;;;;;5.80;2.38;;;18.70;20.20;;;;;;5067601;28;20167;-62
2022/04/25 13:07:42;;;;;;;14.18;2.65;;;18.70;20.40;;;;;;5070321;28;20068;-62
2022/04/25 13:10:10;;;;;;;5.13;2.00;;;18.70;20.50;;;;;;5070968;28;20066;-62
2022/04/25 13:12:42;;;;;;;9.80;2.22;;;18.60;21.00;;;;;;5068857;28;20097;-63
2022/04/25 13:15:12;;;;;;;7.13;2.25;;;18.60;20.50;;;;;;5069108;28;20129;-63
2022/04/25 13:17:40;;;;;;;4.78;2.20;;;18.60;20.40;;;;;;5074930;28;20083;-62
2022/04/25 13:20:09;;;;;;;6.57;2.40;;;18.60;20.30;;;;;;5069564;28;20105;-63
2022/04/25 13:22:36;;;;;;;11.30;2.28;;;18.70;20.50;;;;;;5067140;28;20175;-63
2022/04/25 13:25:04;;;;;;;8.38;2.60;;;18.70;20.50;;;;;;5081569;28;20072;-64
2022/04/25 13:27:31;;;;;;;5.90;2.42;;;18.70;20.50;;;;;;5071177;28;20521;-66
2022/04/25 13:29:58;;;;;;;9.70;2.78;;;18.80;20.50;;;;;;5070477;28;20099;-64